sensor_id;sensor_type;location;lat;lon;timestamp;temperature;humidity
34985;DHT22;21190;58.750;17.004;2023-12-14T00:02:04;-3.70;99.90
34985;DHT22;21190;58.750;17.004;2023-12-14T00:04:32;-3.70;99.90
34985;DHT22;21190;58.750;17.004;2023-12-14T00:06:59;-3.70;99.90
34985;DHT22;21190;58.750;17.004;2023-12-14T00:09:26;-3.70;99.90
34985;DHT22;21190;58.750;17.004;2023-12-14T00:11:53;-3.80;99.90
34985;DHT22;21190;58.750;17.004;2023-12-14T00:14:20;-3.80;99.90
34985;DHT22;21190;58.750;17.004;2023-12-14T00:16:47;-3.70;99.90
34985;DHT22;21190;58.750;17.004;2023-12-14T00:19:16;-3.80;99.90
34985;DHT22;21190;58.750;17.004;2023-12-14T00:21:43;-3.70;99.90
34985;DHT22;21190;58.750;17.004;2023-12-14T00:24:10;-3.80;99.90
34985;DHT22;21190;58.750;17.004;2023-12-14T00:26:38;-3.70;99.90
34985;DHT22;21190;58.750;17.004;2023-12-14T00:29:05;-3.70;99.90
34985;DHT22;21190;58.750;17.004;2023-12-14T00:31:32;-3.70;99.90
34985;DHT22;21190;58.750;17.004;2023-12-14T00:33:59;-3.80;99.90
34985;DHT22;21190;58.750;17.004;2023-12-14T00:36:27;-3.90;99.90
34985;DHT22;21190;58.750;17.004;2023-12-14T00:38:55;-3.90;99.90
34985;DHT22;21190;58.750;17.004;2023-12-14T00:41:23;-3.90;99.90
34985;DHT22;21190;58.750;17.004;2023-12-14T00:43:51;-3.90;99.90
34985;DHT22;21190;58.750;17.004;2023-12-14T00:46:18;-3.90;99.90
34985;DHT22;21190;58.750;17.004;2023-12-14T00:48:45;-3.90;99.90
34985;DHT22;21190;58.750;17.004;2023-12-14T00:51:12;-4.00;99.90
34985;DHT22;21190;58.750;17.004;2023-12-14T00:53:39;-3.90;99.90
34985;DHT22;21190;58.750;17.004;2023-12-14T00:56:09;-3.90;99.90
34985;DHT22;21190;58.750;17.004;2023-12-14T00:58:37;-3.90;99.90
34985;DHT22;21190;58.750;17.004;2023-12-14T01:01:04;-3.90;99.90
34985;DHT22;21190;58.750;17.004;2023-12-14T01:03:31;-3.90;99.90
34985;DHT22;21190;58.750;17.004;2023-12-14T01:05:59;-3.90;99.90
34985;DHT22;21190;58.750;17.004;2023-12-14T01:08:26;-3.90;99.90
34985;DHT22;21190;58.750;17.004;2023-12-14T01:10:53;-3.80;99.90
34985;DHT22;21190;58.750;17.004;2023-12-14T01:13:21;-3.80;99.90
34985;DHT22;21190;58.750;17.004;2023-12-14T01:15:48;-3.80;99.90
34985;DHT22;21190;58.750;17.004;2023-12-14T01:18:15;-3.70;99.90
34985;DHT22;21190;58.750;17.004;2023-12-14T01:20:44;-3.80;99.90
34985;DHT22;21190;58.750;17.004;2023-12-14T01:23:11;-3.80;99.90
34985;DHT22;21190;58.750;17.004;2023-12-14T01:25:38;-3.80;99.90
34985;DHT22;21190;58.750;17.004;2023-12-14T01:28:05;-3.80;99.90
34985;DHT22;21190;58.750;17.004;2023-12-14T01:30:33;-3.80;99.90
34985;DHT22;21190;58.750;17.004;2023-12-14T01:33:00;-3.80;99.90
34985;DHT22;21190;58.750;17.004;2023-12-14T01:35:27;-3.80;99.90
34985;DHT22;21190;58.750;17.004;2023-12-14T01:37:56;-3.80;99.90
34985;DHT22;21190;58.750;17.004;2023-12-14T01:40:24;-3.90;99.90
34985;DHT22;21190;58.750;17.004;2023-12-14T01:42:51;-3.90;99.90
34985;DHT22;21190;58.750;17.004;2023-12-14T01:45:18;-3.90;99.90
34985;DHT22;21190;58.750;17.004;2023-12-14T01:47:46;-3.80;99.90
34985;DHT22;21190;58.750;17.004;2023-12-14T01:50:14;-3.80;99.90
34985;DHT22;21190;58.750;17.004;2023-12-14T01:52:41;-3.90;99.90
34985;DHT22;21190;58.750;17.004;2023-12-14T01:55:08;-3.90;99.90
34985;DHT22;21190;58.750;17.004;2023-12-14T01:57:36;-3.90;99.90
34985;DHT22;21190;58.750;17.004;2023-12-14T02:00:03;-3.90;99.90
34985;DHT22;21190;58.750;17.004;2023-12-14T02:02:30;-3.90;99.90
34985;DHT22;21190;58.750;17.004;2023-12-14T02:04:57;-3.90;99.90
34985;DHT22;21190;58.750;17.004;2023-12-14T02:07:24;-3.90;99.90
34985;DHT22;21190;58.750;17.004;2023-12-14T02:09:51;-4.00;99.90
34985;DHT22;21190;58.750;17.004;2023-12-14T02:12:19;-4.00;99.90
34985;DHT22;21190;58.750;17.004;2023-12-14T02:14:48;-4.10;99.90
34985;DHT22;21190;58.750;17.004;2023-12-14T02:17:15;-4.00;99.90
34985;DHT22;21190;58.750;17.004;2023-12-14T02:19:42;-4.00;99.90
34985;DHT22;21190;58.750;17.004;2023-12-14T02:22:09;-4.00;99.90
34985;DHT22;21190;58.750;17.004;2023-12-14T02:24:36;-4.10;99.90
34985;DHT22;21190;58.750;17.004;2023-12-14T02:27:03;-4.10;99.90
34985;DHT22;21190;58.750;17.004;2023-12-14T02:29:30;-4.20;99.90
34985;DHT22;21190;58.750;17.004;2023-12-14T02:31:57;-4.10;99.90
34985;DHT22;21190;58.750;17.004;2023-12-14T02:34:25;-4.10;99.90
34985;DHT22;21190;58.750;17.004;2023-12-14T02:36:52;-4.20;99.90
34985;DHT22;21190;58.750;17.004;2023-12-14T02:39:19;-4.20;99.90
34985;DHT22;21190;58.750;17.004;2023-12-14T02:41:46;-4.20;99.90
34985;DHT22;21190;58.750;17.004;2023-12-14T02:44:13;-4.20;99.90
34985;DHT22;21190;58.750;17.004;2023-12-14T02:46:40;-4.20;99.90
34985;DHT22;21190;58.750;17.004;2023-12-14T02:49:08;-4.30;99.90
34985;DHT22;21190;58.750;17.004;2023-12-14T02:51:35;-4.40;99.90
34985;DHT22;21190;58.750;17.004;2023-12-14T02:54:03;-4.30;99.90
34985;DHT22;21190;58.750;17.004;2023-12-14T02:56:30;-4.40;99.90
34985;DHT22;21190;58.750;17.004;2023-12-14T02:58:57;-4.30;99.90
34985;DHT22;21190;58.750;17.004;2023-12-14T03:01:24;-4.40;99.90
34985;DHT22;21190;58.750;17.004;2023-12-14T03:03:52;-4.50;99.90
34985;DHT22;21190;58.750;17.004;2023-12-14T03:06:19;-4.60;99.90
34985;DHT22;21190;58.750;17.004;2023-12-14T03:08:46;-4.60;99.90
34985;DHT22;21190;58.750;17.004;2023-12-14T03:11:21;-4.60;99.90
34985;DHT22;21190;58.750;17.004;2023-12-14T03:13:50;-4.80;99.90
34985;DHT22;21190;58.750;17.004;2023-12-14T03:16:18;-4.90;99.90
34985;DHT22;21190;58.750;17.004;2023-12-14T03:18:45;-4.90;99.90
34985;DHT22;21190;58.750;17.004;2023-12-14T03:21:13;-5.00;99.90
34985;DHT22;21190;58.750;17.004;2023-12-14T03:23:40;-5.00;99.90
34985;DHT22;21190;58.750;17.004;2023-12-14T03:26:07;-5.10;99.90
34985;DHT22;21190;58.750;17.004;2023-12-14T03:28:35;-5.20;99.90
34985;DHT22;21190;58.750;17.004;2023-12-14T03:31:02;-5.30;99.90
34985;DHT22;21190;58.750;17.004;2023-12-14T03:33:30;-5.30;99.90
34985;DHT22;21190;58.750;17.004;2023-12-14T03:35:57;-5.40;99.90
34985;DHT22;21190;58.750;17.004;2023-12-14T03:38:24;-5.40;99.90
34985;DHT22;21190;58.750;17.004;2023-12-14T03:40:51;-5.40;99.90
34985;DHT22;21190;58.750;17.004;2023-12-14T03:43:19;-5.40;99.90
34985;DHT22;21190;58.750;17.004;2023-12-14T03:45:46;-5.70;99.90
34985;DHT22;21190;58.750;17.004;2023-12-14T03:48:13;-5.80;99.90
34985;DHT22;21190;58.750;17.004;2023-12-14T03:50:40;-5.70;99.90
34985;DHT22;21190;58.750;17.004;2023-12-14T03:53:07;-5.80;99.90
34985;DHT22;21190;58.750;17.004;2023-12-14T03:55:35;-5.90;99.90
34985;DHT22;21190;58.750;17.004;2023-12-14T03:58:02;-6.00;99.90
34985;DHT22;21190;58.750;17.004;2023-12-14T04:00:29;-6.00;99.90
34985;DHT22;21190;58.750;17.004;2023-12-14T04:02:59;-6.10;99.90
34985;DHT22;21190;58.750;17.004;2023-12-14T04:05:27;-6.10;99.90
34985;DHT22;21190;58.750;17.004;2023-12-14T04:07:54;-6.10;99.90
34985;DHT22;21190;58.750;17.004;2023-12-14T04:10:23;-6.10;99.90
34985;DHT22;21190;58.750;17.004;2023-12-14T04:12:50;-6.20;99.90
34985;DHT22;21190;58.750;17.004;2023-12-14T04:15:17;-6.20;99.90
34985;DHT22;21190;58.750;17.004;2023-12-14T04:17:44;-6.30;99.90
34985;DHT22;21190;58.750;17.004;2023-12-14T04:20:13;-6.30;99.90
34985;DHT22;21190;58.750;17.004;2023-12-14T04:22:46;-6.30;99.90
34985;DHT22;21190;58.750;17.004;2023-12-14T04:25:13;-6.20;99.90
34985;DHT22;21190;58.750;17.004;2023-12-14T04:27:40;-6.30;99.90
34985;DHT22;21190;58.750;17.004;2023-12-14T04:30:08;-6.20;99.90
34985;DHT22;21190;58.750;17.004;2023-12-14T04:32:38;-6.20;99.90
34985;DHT22;21190;58.750;17.004;2023-12-14T04:35:06;-6.20;99.90
34985;DHT22;21190;58.750;17.004;2023-12-14T04:37:34;-6.20;99.90
34985;DHT22;21190;58.750;17.004;2023-12-14T04:40:02;-6.10;99.90
34985;DHT22;21190;58.750;17.004;2023-12-14T04:42:29;-6.20;99.90
34985;DHT22;21190;58.750;17.004;2023-12-14T04:44:57;-6.20;99.90
34985;DHT22;21190;58.750;17.004;2023-12-14T04:47:24;-6.20;99.90
34985;DHT22;21190;58.750;17.004;2023-12-14T04:49:50;-6.20;99.90
34985;DHT22;21190;58.750;17.004;2023-12-14T04:52:18;-6.20;99.90
34985;DHT22;21190;58.750;17.004;2023-12-14T04:54:45;-6.20;99.90
34985;DHT22;21190;58.750;17.004;2023-12-14T04:57:12;-6.20;99.90
34985;DHT22;21190;58.750;17.004;2023-12-14T04:59:41;-6.30;99.90
34985;DHT22;21190;58.750;17.004;2023-12-14T05:02:08;-6.30;99.90
34985;DHT22;21190;58.750;17.004;2023-12-14T05:04:37;-6.30;99.90
34985;DHT22;21190;58.750;17.004;2023-12-14T05:07:04;-6.30;99.90
34985;DHT22;21190;58.750;17.004;2023-12-14T05:09:32;-6.20;99.90
34985;DHT22;21190;58.750;17.004;2023-12-14T05:11:59;-6.20;99.90
34985;DHT22;21190;58.750;17.004;2023-12-14T05:14:26;-6.20;99.90
34985;DHT22;21190;58.750;17.004;2023-12-14T05:16:55;-6.20;99.90
34985;DHT22;21190;58.750;17.004;2023-12-14T05:19:22;-6.10;99.90
34985;DHT22;21190;58.750;17.004;2023-12-14T05:21:50;-6.00;99.90
34985;DHT22;21190;58.750;17.004;2023-12-14T05:24:17;-6.00;99.90
34985;DHT22;21190;58.750;17.004;2023-12-14T05:26:44;-6.00;99.90
34985;DHT22;21190;58.750;17.004;2023-12-14T05:29:11;-5.90;99.90
34985;DHT22;21190;58.750;17.004;2023-12-14T05:31:38;-5.90;99.90
34985;DHT22;21190;58.750;17.004;2023-12-14T05:34:05;-5.90;99.90
34985;DHT22;21190;58.750;17.004;2023-12-14T05:36:33;-6.00;99.90
34985;DHT22;21190;58.750;17.004;2023-12-14T05:39:00;-5.90;99.90
34985;DHT22;21190;58.750;17.004;2023-12-14T05:41:26;-5.90;99.90
34985;DHT22;21190;58.750;17.004;2023-12-14T05:43:54;-5.90;99.90
34985;DHT22;21190;58.750;17.004;2023-12-14T05:46:24;-5.80;99.90
34985;DHT22;21190;58.750;17.004;2023-12-14T05:48:51;-5.80;99.90
34985;DHT22;21190;58.750;17.004;2023-12-14T05:51:28;-5.80;99.90
34985;DHT22;21190;58.750;17.004;2023-12-14T05:53:56;-5.80;99.90
34985;DHT22;21190;58.750;17.004;2023-12-14T05:56:25;-5.90;99.90
34985;DHT22;21190;58.750;17.004;2023-12-14T05:58:52;-5.80;99.90
34985;DHT22;21190;58.750;17.004;2023-12-14T06:01:19;-5.80;99.90
34985;DHT22;21190;58.750;17.004;2023-12-14T06:03:46;-5.80;99.90
34985;DHT22;21190;58.750;17.004;2023-12-14T06:06:14;-5.80;99.90
34985;DHT22;21190;58.750;17.004;2023-12-14T06:08:41;-5.80;99.90
34985;DHT22;21190;58.750;17.004;2023-12-14T06:11:09;-5.90;99.90
34985;DHT22;21190;58.750;17.004;2023-12-14T06:13:36;-5.80;99.90
34985;DHT22;21190;58.750;17.004;2023-12-14T06:16:04;-5.80;99.90
34985;DHT22;21190;58.750;17.004;2023-12-14T06:18:31;-5.70;99.90
34985;DHT22;21190;58.750;17.004;2023-12-14T06:20:58;-5.70;99.90
34985;DHT22;21190;58.750;17.004;2023-12-14T06:23:26;-5.80;99.90
34985;DHT22;21190;58.750;17.004;2023-12-14T06:25:53;-5.80;99.90
34985;DHT22;21190;58.750;17.004;2023-12-14T06:28:20;-5.90;99.90
34985;DHT22;21190;58.750;17.004;2023-12-14T06:30:48;-5.90;99.90
34985;DHT22;21190;58.750;17.004;2023-12-14T06:33:15;-5.90;99.90
34985;DHT22;21190;58.750;17.004;2023-12-14T06:35:42;-5.90;99.90
34985;DHT22;21190;58.750;17.004;2023-12-14T06:38:10;-5.80;99.90
34985;DHT22;21190;58.750;17.004;2023-12-14T06:40:37;-5.80;99.90
34985;DHT22;21190;58.750;17.004;2023-12-14T06:43:06;-5.70;99.90
34985;DHT22;21190;58.750;17.004;2023-12-14T06:45:36;-5.80;99.90
34985;DHT22;21190;58.750;17.004;2023-12-14T06:48:04;-5.90;99.90
34985;DHT22;21190;58.750;17.004;2023-12-14T06:50:31;-5.90;99.90
34985;DHT22;21190;58.750;17.004;2023-12-14T06:52:58;-5.80;99.90
34985;DHT22;21190;58.750;17.004;2023-12-14T06:55:25;-5.80;99.90
34985;DHT22;21190;58.750;17.004;2023-12-14T06:57:53;-5.80;99.90
34985;DHT22;21190;58.750;17.004;2023-12-14T07:00:20;-5.80;99.90
34985;DHT22;21190;58.750;17.004;2023-12-14T07:02:47;-5.80;99.90
34985;DHT22;21190;58.750;17.004;2023-12-14T07:05:14;-5.80;99.90
34985;DHT22;21190;58.750;17.004;2023-12-14T07:07:42;-5.70;99.90
34985;DHT22;21190;58.750;17.004;2023-12-14T07:10:09;-5.80;99.90
34985;DHT22;21190;58.750;17.004;2023-12-14T07:12:36;-5.80;99.90
34985;DHT22;21190;58.750;17.004;2023-12-14T07:15:03;-5.70;99.90
34985;DHT22;21190;58.750;17.004;2023-12-14T07:17:32;-5.70;99.90
34985;DHT22;21190;58.750;17.004;2023-12-14T07:19:59;-5.70;99.90
34985;DHT22;21190;58.750;17.004;2023-12-14T07:22:26;-5.70;99.90
34985;DHT22;21190;58.750;17.004;2023-12-14T07:24:53;-5.70;99.90
34985;DHT22;21190;58.750;17.004;2023-12-14T07:27:26;-5.70;99.90
34985;DHT22;21190;58.750;17.004;2023-12-14T07:29:53;-5.70;99.90
34985;DHT22;21190;58.750;17.004;2023-12-14T07:32:20;-5.70;99.90
34985;DHT22;21190;58.750;17.004;2023-12-14T07:34:48;-5.80;99.90
34985;DHT22;21190;58.750;17.004;2023-12-14T07:37:15;-5.80;99.90
34985;DHT22;21190;58.750;17.004;2023-12-14T07:39:42;-5.90;99.90
34985;DHT22;21190;58.750;17.004;2023-12-14T07:42:09;-5.90;99.90
34985;DHT22;21190;58.750;17.004;2023-12-14T07:44:36;-5.80;99.90
34985;DHT22;21190;58.750;17.004;2023-12-14T07:47:04;-5.80;99.90
34985;DHT22;21190;58.750;17.004;2023-12-14T07:49:31;-5.80;99.90
34985;DHT22;21190;58.750;17.004;2023-12-14T07:51:58;-5.80;99.90
34985;DHT22;21190;58.750;17.004;2023-12-14T07:54:25;-5.80;99.90
34985;DHT22;21190;58.750;17.004;2023-12-14T07:56:53;-5.80;99.90
34985;DHT22;21190;58.750;17.004;2023-12-14T07:59:20;-5.70;99.90
34985;DHT22;21190;58.750;17.004;2023-12-14T08:01:48;-5.70;99.90
34985;DHT22;21190;58.750;17.004;2023-12-14T08:04:15;-5.60;99.90
34985;DHT22;21190;58.750;17.004;2023-12-14T08:06:42;-5.60;99.90
34985;DHT22;21190;58.750;17.004;2023-12-14T08:09:09;-5.60;99.90
34985;DHT22;21190;58.750;17.004;2023-12-14T08:11:37;-5.50;99.90
34985;DHT22;21190;58.750;17.004;2023-12-14T08:14:03;-5.50;99.90
34985;DHT22;21190;58.750;17.004;2023-12-14T08:16:31;-5.50;99.90
34985;DHT22;21190;58.750;17.004;2023-12-14T08:18:58;-5.50;99.90
34985;DHT22;21190;58.750;17.004;2023-12-14T08:21:25;-5.40;99.90
34985;DHT22;21190;58.750;17.004;2023-12-14T08:23:52;-5.40;99.90
34985;DHT22;21190;58.750;17.004;2023-12-14T08:26:19;-5.40;99.90
34985;DHT22;21190;58.750;17.004;2023-12-14T08:28:46;-5.30;99.90
34985;DHT22;21190;58.750;17.004;2023-12-14T08:31:14;-5.30;99.90
34985;DHT22;21190;58.750;17.004;2023-12-14T08:33:41;-5.30;99.90
34985;DHT22;21190;58.750;17.004;2023-12-14T08:36:17;-5.30;99.90
34985;DHT22;21190;58.750;17.004;2023-12-14T08:38:44;-5.30;99.90
34985;DHT22;21190;58.750;17.004;2023-12-14T08:41:14;-5.30;99.90
34985;DHT22;21190;58.750;17.004;2023-12-14T08:43:42;-5.30;99.90
34985;DHT22;21190;58.750;17.004;2023-12-14T08:46:10;-5.30;99.90
34985;DHT22;21190;58.750;17.004;2023-12-14T08:48:37;-5.30;99.90
34985;DHT22;21190;58.750;17.004;2023-12-14T08:51:05;-5.30;99.90
34985;DHT22;21190;58.750;17.004;2023-12-14T08:53:32;-5.30;99.90
34985;DHT22;21190;58.750;17.004;2023-12-14T08:55:59;-5.30;99.90
34985;DHT22;21190;58.750;17.004;2023-12-14T08:58:26;-5.20;99.90
34985;DHT22;21190;58.750;17.004;2023-12-14T09:00:53;-5.30;99.90
34985;DHT22;21190;58.750;17.004;2023-12-14T09:03:20;-5.20;99.90
34985;DHT22;21190;58.750;17.004;2023-12-14T09:05:48;-5.20;99.90
34985;DHT22;21190;58.750;17.004;2023-12-14T09:08:15;-5.10;99.90
34985;DHT22;21190;58.750;17.004;2023-12-14T09:10:42;-5.10;99.90
34985;DHT22;21190;58.750;17.004;2023-12-14T09:13:10;-5.10;99.90
34985;DHT22;21190;58.750;17.004;2023-12-14T09:15:37;-5.10;99.90
34985;DHT22;21190;58.750;17.004;2023-12-14T09:18:04;-5.00;99.90
34985;DHT22;21190;58.750;17.004;2023-12-14T09:20:32;-5.00;99.90
34985;DHT22;21190;58.750;17.004;2023-12-14T09:23:02;-5.00;99.90
34985;DHT22;21190;58.750;17.004;2023-12-14T09:25:29;-5.00;99.90
34985;DHT22;21190;58.750;17.004;2023-12-14T09:27:56;-5.00;99.90
34985;DHT22;21190;58.750;17.004;2023-12-14T09:30:23;-5.00;99.90
34985;DHT22;21190;58.750;17.004;2023-12-14T09:32:50;-4.90;99.90
34985;DHT22;21190;58.750;17.004;2023-12-14T09:35:18;-4.90;99.90
34985;DHT22;21190;58.750;17.004;2023-12-14T09:37:45;-5.00;99.90
34985;DHT22;21190;58.750;17.004;2023-12-14T09:40:12;-4.90;99.90
34985;DHT22;21190;58.750;17.004;2023-12-14T09:42:39;-4.90;99.90
34985;DHT22;21190;58.750;17.004;2023-12-14T09:45:09;-4.90;99.90
34985;DHT22;21190;58.750;17.004;2023-12-14T09:47:37;-4.90;99.90
34985;DHT22;21190;58.750;17.004;2023-12-14T09:50:06;-4.90;99.90
34985;DHT22;21190;58.750;17.004;2023-12-14T09:52:33;-4.90;99.90
34985;DHT22;21190;58.750;17.004;2023-12-14T09:55:00;-4.90;99.90
34985;DHT22;21190;58.750;17.004;2023-12-14T09:57:30;-4.90;99.90
34985;DHT22;21190;58.750;17.004;2023-12-14T09:59:58;-4.90;99.90
34985;DHT22;21190;58.750;17.004;2023-12-14T10:02:27;-4.90;99.90
34985;DHT22;21190;58.750;17.004;2023-12-14T10:04:54;-4.90;99.90
34985;DHT22;21190;58.750;17.004;2023-12-14T10:07:22;-4.90;99.90
34985;DHT22;21190;58.750;17.004;2023-12-14T10:09:49;-4.90;99.90
34985;DHT22;21190;58.750;17.004;2023-12-14T10:12:17;-4.90;99.90
34985;DHT22;21190;58.750;17.004;2023-12-14T10:14:44;-4.90;99.90
34985;DHT22;21190;58.750;17.004;2023-12-14T10:17:16;-5.00;99.90
34985;DHT22;21190;58.750;17.004;2023-12-14T10:19:45;-5.00;99.90
34985;DHT22;21190;58.750;17.004;2023-12-14T10:22:14;-5.10;99.90
34985;DHT22;21190;58.750;17.004;2023-12-14T10:24:43;-5.00;99.90
34985;DHT22;21190;58.750;17.004;2023-12-14T10:27:11;-5.10;99.90
34985;DHT22;21190;58.750;17.004;2023-12-14T10:29:38;-5.00;99.90
34985;DHT22;21190;58.750;17.004;2023-12-14T10:32:06;-5.00;99.90
34985;DHT22;21190;58.750;17.004;2023-12-14T10:34:35;-5.00;99.90
34985;DHT22;21190;58.750;17.004;2023-12-14T10:37:06;-5.00;99.90
34985;DHT22;21190;58.750;17.004;2023-12-14T10:39:34;-4.90;99.90
34985;DHT22;21190;58.750;17.004;2023-12-14T10:42:03;-4.90;99.90
34985;DHT22;21190;58.750;17.004;2023-12-14T10:44:45;-4.80;99.90
34985;DHT22;21190;58.750;17.004;2023-12-14T10:47:35;-4.80;99.90
34985;DHT22;21190;58.750;17.004;2023-12-14T10:50:04;-4.80;99.90
34985;DHT22;21190;58.750;17.004;2023-12-14T10:52:32;-4.90;99.90
34985;DHT22;21190;58.750;17.004;2023-12-14T10:55:10;-4.90;99.90
34985;DHT22;21190;58.750;17.004;2023-12-14T10:57:38;-4.90;99.90
34985;DHT22;21190;58.750;17.004;2023-12-14T11:00:10;-4.90;99.90
34985;DHT22;21190;58.750;17.004;2023-12-14T11:02:40;-4.90;99.90
34985;DHT22;21190;58.750;17.004;2023-12-14T11:05:11;-4.80;99.90
34985;DHT22;21190;58.750;17.004;2023-12-14T11:07:50;-4.80;99.90
34985;DHT22;21190;58.750;17.004;2023-12-14T11:10:26;-4.80;99.90
34985;DHT22;21190;58.750;17.004;2023-12-14T11:13:04;-4.80;99.90
34985;DHT22;21190;58.750;17.004;2023-12-14T11:15:35;-4.80;99.90
34985;DHT22;21190;58.750;17.004;2023-12-14T11:23:17;-4.80;99.90
34985;DHT22;21190;58.750;17.004;2023-12-14T11:25:50;-4.80;99.90
34985;DHT22;21190;58.750;17.004;2023-12-14T11:28:25;-4.80;99.90
34985;DHT22;21190;58.750;17.004;2023-12-14T11:30:54;-4.90;99.90
34985;DHT22;21190;58.750;17.004;2023-12-14T11:33:23;-4.80;99.90
34985;DHT22;21190;58.750;17.004;2023-12-14T11:35:52;-4.80;99.90
34985;DHT22;21190;58.750;17.004;2023-12-14T11:38:20;-4.80;99.90
34985;DHT22;21190;58.750;17.004;2023-12-14T11:40:49;-4.80;99.90
34985;DHT22;21190;58.750;17.004;2023-12-14T11:43:17;-4.80;99.90
34985;DHT22;21190;58.750;17.004;2023-12-14T11:45:48;-4.80;99.90
34985;DHT22;21190;58.750;17.004;2023-12-14T11:48:15;-4.80;99.90
34985;DHT22;21190;58.750;17.004;2023-12-14T11:50:43;-4.80;99.90
34985;DHT22;21190;58.750;17.004;2023-12-14T11:53:11;-4.70;99.90
34985;DHT22;21190;58.750;17.004;2023-12-14T11:55:41;-4.70;99.90
34985;DHT22;21190;58.750;17.004;2023-12-14T11:58:10;-4.80;99.90
34985;DHT22;21190;58.750;17.004;2023-12-14T12:00:38;-4.80;99.90
34985;DHT22;21190;58.750;17.004;2023-12-14T12:03:14;-4.80;99.90
34985;DHT22;21190;58.750;17.004;2023-12-14T12:05:47;-4.80;99.90
34985;DHT22;21190;58.750;17.004;2023-12-14T12:08:17;-4.90;99.90
34985;DHT22;21190;58.750;17.004;2023-12-14T12:10:47;-4.90;99.90
34985;DHT22;21190;58.750;17.004;2023-12-14T12:13:16;-4.80;99.90
34985;DHT22;21190;58.750;17.004;2023-12-14T12:15:44;-4.90;99.90
34985;DHT22;21190;58.750;17.004;2023-12-14T12:18:14;-5.00;99.90
34985;DHT22;21190;58.750;17.004;2023-12-14T12:20:42;-5.00;99.90
34985;DHT22;21190;58.750;17.004;2023-12-14T12:23:09;-5.00;99.90
34985;DHT22;21190;58.750;17.004;2023-12-14T12:25:37;-4.90;99.90
34985;DHT22;21190;58.750;17.004;2023-12-14T12:28:04;-4.90;99.90
34985;DHT22;21190;58.750;17.004;2023-12-14T12:30:31;-4.90;99.90
34985;DHT22;21190;58.750;17.004;2023-12-14T12:32:59;-5.00;99.90
34985;DHT22;21190;58.750;17.004;2023-12-14T12:35:26;-5.00;99.90
34985;DHT22;21190;58.750;17.004;2023-12-14T12:37:56;-5.00;99.90
34985;DHT22;21190;58.750;17.004;2023-12-14T12:40:24;-5.00;99.90
34985;DHT22;21190;58.750;17.004;2023-12-14T12:42:56;-5.00;99.90
34985;DHT22;21190;58.750;17.004;2023-12-14T12:45:23;-4.90;99.90
34985;DHT22;21190;58.750;17.004;2023-12-14T12:47:55;-5.00;99.90
34985;DHT22;21190;58.750;17.004;2023-12-14T12:50:23;-5.00;99.90
34985;DHT22;21190;58.750;17.004;2023-12-14T12:52:50;-5.00;99.90
34985;DHT22;21190;58.750;17.004;2023-12-14T12:55:18;-5.10;99.90
34985;DHT22;21190;58.750;17.004;2023-12-14T12:57:45;-5.10;99.90
34985;DHT22;21190;58.750;17.004;2023-12-14T13:00:14;-5.00;99.90
34985;DHT22;21190;58.750;17.004;2023-12-14T13:02:43;-5.00;99.90
34985;DHT22;21190;58.750;17.004;2023-12-14T13:05:12;-5.10;99.90
34985;DHT22;21190;58.750;17.004;2023-12-14T13:07:45;-5.10;99.90
34985;DHT22;21190;58.750;17.004;2023-12-14T13:10:14;-5.10;99.90
34985;DHT22;21190;58.750;17.004;2023-12-14T13:12:56;-5.20;99.90
34985;DHT22;21190;58.750;17.004;2023-12-14T13:15:24;-5.00;99.90
34985;DHT22;21190;58.750;17.004;2023-12-14T13:17:53;-5.00;99.90
34985;DHT22;21190;58.750;17.004;2023-12-14T13:20:20;-5.00;99.90
34985;DHT22;21190;58.750;17.004;2023-12-14T13:22:48;-5.00;99.90
34985;DHT22;21190;58.750;17.004;2023-12-14T13:25:16;-5.00;99.90
34985;DHT22;21190;58.750;17.004;2023-12-14T13:27:43;-5.00;99.90
34985;DHT22;21190;58.750;17.004;2023-12-14T13:30:11;-5.10;99.90
34985;DHT22;21190;58.750;17.004;2023-12-14T13:32:38;-5.10;99.90
34985;DHT22;21190;58.750;17.004;2023-12-14T13:35:05;-5.20;99.90
34985;DHT22;21190;58.750;17.004;2023-12-14T13:37:34;-5.20;99.90
34985;DHT22;21190;58.750;17.004;2023-12-14T13:40:02;-5.20;99.90
34985;DHT22;21190;58.750;17.004;2023-12-14T13:42:30;-5.30;99.90
34985;DHT22;21190;58.750;17.004;2023-12-14T13:44:57;-5.30;99.90
34985;DHT22;21190;58.750;17.004;2023-12-14T13:47:24;-5.30;99.90
34985;DHT22;21190;58.750;17.004;2023-12-14T13:49:52;-5.20;99.90
34985;DHT22;21190;58.750;17.004;2023-12-14T13:52:20;-5.30;99.90
34985;DHT22;21190;58.750;17.004;2023-12-14T13:54:47;-5.30;99.90
34985;DHT22;21190;58.750;17.004;2023-12-14T13:57:14;-5.20;99.90
34985;DHT22;21190;58.750;17.004;2023-12-14T13:59:41;-5.30;99.90
34985;DHT22;21190;58.750;17.004;2023-12-14T14:02:08;-5.30;99.90
34985;DHT22;21190;58.750;17.004;2023-12-14T14:04:37;-5.30;99.90
34985;DHT22;21190;58.750;17.004;2023-12-14T14:07:04;-5.30;99.90
34985;DHT22;21190;58.750;17.004;2023-12-14T14:09:31;-5.40;99.90
34985;DHT22;21190;58.750;17.004;2023-12-14T14:11:59;-5.50;99.90
34985;DHT22;21190;58.750;17.004;2023-12-14T14:14:26;-5.50;99.90
34985;DHT22;21190;58.750;17.004;2023-12-14T14:16:54;-5.50;99.90
34985;DHT22;21190;58.750;17.004;2023-12-14T14:19:21;-5.40;99.90
34985;DHT22;21190;58.750;17.004;2023-12-14T14:21:48;-5.40;99.90
34985;DHT22;21190;58.750;17.004;2023-12-14T14:24:15;-5.50;99.90
34985;DHT22;21190;58.750;17.004;2023-12-14T14:26:42;-5.50;99.90
34985;DHT22;21190;58.750;17.004;2023-12-14T14:29:09;-5.50;99.90
34985;DHT22;21190;58.750;17.004;2023-12-14T14:31:38;-5.50;99.90
34985;DHT22;21190;58.750;17.004;2023-12-14T14:34:05;-5.50;99.90
34985;DHT22;21190;58.750;17.004;2023-12-14T14:36:32;-5.50;99.90
34985;DHT22;21190;58.750;17.004;2023-12-14T14:38:59;-5.60;99.90
34985;DHT22;21190;58.750;17.004;2023-12-14T14:41:26;-5.60;99.90
34985;DHT22;21190;58.750;17.004;2023-12-14T14:43:54;-5.60;99.90
34985;DHT22;21190;58.750;17.004;2023-12-14T14:46:21;-5.60;99.90
34985;DHT22;21190;58.750;17.004;2023-12-14T14:48:48;-5.50;99.90
34985;DHT22;21190;58.750;17.004;2023-12-14T14:51:15;-5.50;99.90
34985;DHT22;21190;58.750;17.004;2023-12-14T14:53:42;-5.50;99.90
34985;DHT22;21190;58.750;17.004;2023-12-14T14:56:10;-5.60;99.90
34985;DHT22;21190;58.750;17.004;2023-12-14T14:58:37;-5.60;99.90
34985;DHT22;21190;58.750;17.004;2023-12-14T15:01:05;-5.60;99.90
34985;DHT22;21190;58.750;17.004;2023-12-14T15:03:32;-5.50;99.90
34985;DHT22;21190;58.750;17.004;2023-12-14T15:05:59;-5.50;99.90
34985;DHT22;21190;58.750;17.004;2023-12-14T15:08:27;-5.50;99.90
34985;DHT22;21190;58.750;17.004;2023-12-14T15:10:54;-5.50;99.90
34985;DHT22;21190;58.750;17.004;2023-12-14T15:13:23;-5.50;99.90
34985;DHT22;21190;58.750;17.004;2023-12-14T15:15:50;-5.60;99.90
34985;DHT22;21190;58.750;17.004;2023-12-14T15:18:17;-5.60;99.90
34985;DHT22;21190;58.750;17.004;2023-12-14T15:20:44;-5.50;99.90
34985;DHT22;21190;58.750;17.004;2023-12-14T15:23:12;-5.60;99.90
34985;DHT22;21190;58.750;17.004;2023-12-14T15:25:40;-5.60;99.90